createdAt,value
2022-12-03T00:00:33.226Z,101643.00
2022-12-03T00:01:35.105Z,101644.76
2022-12-03T00:02:37.083Z,101642.05
2022-12-03T00:03:39.348Z,101642.92
2022-12-03T00:04:41.637Z,101648.17
2022-12-03T00:05:48.780Z,101655.94
2022-12-03T00:06:47.388Z,101653.39
2022-12-03T00:07:49.335Z,101643.92
2022-12-03T00:08:51.382Z,101646.49
2022-12-03T00:09:53.352Z,101650.02
2022-12-03T00:10:55.312Z,101650.87
2022-12-03T00:11:57.176Z,101648.25
2022-12-03T00:12:59.057Z,101655.16
2022-12-03T00:14:00.946Z,101660.35
2022-12-03T00:15:04.648Z,101652.64
2022-12-03T00:16:09.185Z,101652.55
2022-12-03T00:17:11.943Z,101652.50
2022-12-03T00:18:13.916Z,101658.56
2022-12-03T00:19:15.882Z,101655.09
2022-12-03T00:20:21.090Z,101650.74
2022-12-03T00:21:24.763Z,101657.78
2022-12-03T00:22:27.293Z,101653.40
2022-12-03T00:23:29.206Z,101643.05
2022-12-03T00:24:31.070Z,101651.66
2022-12-03T00:25:33.026Z,101655.05
2022-12-03T00:26:34.988Z,101654.18
2022-12-03T00:27:36.879Z,101654.20
2022-12-03T00:28:40.173Z,101656.92
2022-12-03T00:29:42.165Z,101658.53
2022-12-03T00:30:44.208Z,101658.51
2022-12-03T00:31:46.457Z,101654.20
2022-12-03T00:32:48.568Z,101654.98
2022-12-03T00:33:52.439Z,101656.75
2022-12-03T00:34:54.539Z,101647.22
2022-12-03T00:35:56.729Z,101655.05
2022-12-03T00:36:58.700Z,101655.05
2022-12-03T00:38:00.572Z,101662.03
2022-12-03T00:39:02.997Z,101655.88
2022-12-03T00:40:07.471Z,101658.48
2022-12-03T00:41:10.613Z,101661.05
2022-12-03T00:42:13.706Z,101661.83
2022-12-03T00:43:15.599Z,101656.69
2022-12-03T00:44:17.458Z,101649.79
2022-12-03T00:45:19.319Z,101656.63
2022-12-03T00:46:23.207Z,101653.31
2022-12-03T00:47:25.382Z,101654.98
2022-12-03T00:48:27.264Z,101653.25
2022-12-03T00:49:29.158Z,101650.72
2022-12-03T00:50:31.134Z,101651.38
2022-12-03T00:51:32.968Z,101656.52
2022-12-03T00:52:35.469Z,101658.31
2022-12-03T00:53:37.370Z,101665.27
2022-12-03T00:54:39.215Z,101660.87
2022-12-03T00:55:41.080Z,101659.06
2022-12-03T00:56:43.207Z,101670.50
2022-12-03T00:57:45.050Z,101667.75
2022-12-03T00:58:46.909Z,101665.18
2022-12-03T00:59:49.927Z,101664.28
2022-12-03T01:00:52.255Z,101667.78
2022-12-03T01:01:54.204Z,101661.72
2022-12-03T01:02:56.329Z,101670.26
2022-12-03T01:03:58.203Z,101664.23
2022-12-03T01:05:00.945Z,101672.92
2022-12-03T01:06:03.410Z,101670.38
2022-12-03T01:07:05.380Z,101668.62
2022-12-03T01:08:08.251Z,101664.25
2022-12-03T01:09:10.633Z,101672.92
2022-12-03T01:10:13.426Z,101665.92
2022-12-03T01:11:15.296Z,101666.70
2022-12-03T01:12:17.170Z,101661.59
2022-12-03T01:13:19.186Z,101668.55
2022-12-03T01:14:21.434Z,101665.03
2022-12-03T01:15:23.315Z,101665.00
2022-12-03T01:16:25.335Z,101670.97
2022-12-03T01:17:27.331Z,101664.88
2022-12-03T01:18:29.204Z,101664.94
2022-12-03T01:19:31.057Z,101671.66
2022-12-03T01:20:33.152Z,101669.89
2022-12-03T01:21:35.633Z,101664.73
2022-12-03T01:22:37.499Z,101669.12
2022-12-03T01:23:39.372Z,101669.03
2022-12-03T01:24:41.242Z,101669.77
2022-12-03T01:25:44.914Z,101662.91
2022-12-03T01:26:47.172Z,101669.06
2022-12-03T01:27:49.009Z,101659.36
2022-12-03T01:28:51.735Z,101665.38
2022-12-03T01:29:53.673Z,101662.02
2022-12-03T01:30:55.669Z,101673.23
2022-12-03T01:31:57.614Z,101663.72
2022-12-03T01:32:59.499Z,101665.38
2022-12-03T01:34:01.368Z,101672.27
2022-12-03T01:35:03.816Z,101671.47
2022-12-03T01:36:07.301Z,101672.24
2022-12-03T01:37:10.494Z,101671.34
2022-12-03T01:38:12.357Z,101666.16
2022-12-03T01:39:14.328Z,101672.98
2022-12-03T01:40:19.191Z,101674.81
2022-12-03T01:41:23.984Z,101683.42
2022-12-03T01:42:32.381Z,101675.67
2022-12-03T01:43:35.507Z,101675.67
2022-12-03T01:44:40.198Z,101669.52
2022-12-03T01:45:42.303Z,101676.47
2022-12-03T01:46:45.569Z,101676.54
2022-12-03T01:47:48.168Z,101681.80
2022-12-03T01:48:52.954Z,101671.22
2022-12-03T01:51:08.022Z,101670.64
2022-12-03T01:52:13.148Z,101678.23
2022-12-03T01:53:17.352Z,101681.73
2022-12-03T01:54:22.621Z,101683.49
2022-12-03T01:55:25.748Z,101681.66
2022-12-03T01:56:27.732Z,101689.48
2022-12-03T01:57:33.353Z,101682.59
2022-12-03T01:58:35.225Z,101677.27
2022-12-03T01:59:41.078Z,101674.81
2022-12-03T02:00:43.075Z,101679.88
2022-12-03T02:01:45.638Z,101681.50
2022-12-03T02:02:50.822Z,101675.48
2022-12-03T02:03:52.769Z,101674.55
2022-12-03T02:04:55.375Z,101674.61
2022-12-03T02:05:57.660Z,101667.69
2022-12-03T02:07:21.533Z,101676.31
2022-12-03T02:08:36.996Z,101672.08
2022-12-03T02:09:38.934Z,101679.80
2022-12-03T02:10:40.975Z,101683.16
2022-12-03T02:11:46.574Z,101678.11
2022-12-03T02:12:52.282Z,101677.17
2022-12-03T02:13:58.072Z,101684.97
2022-12-03T02:15:01.238Z,101682.47
2022-12-03T02:16:04.018Z,101688.42
2022-12-03T02:17:05.991Z,101683.36
2022-12-03T02:18:10.765Z,101680.73
2022-12-03T02:19:23.713Z,101684.23
2022-12-03T02:20:26.092Z,101695.38
2022-12-03T02:21:41.578Z,101689.36
2022-12-03T02:22:53.672Z,101695.38
2022-12-03T02:24:19.313Z,101696.08
2022-12-03T02:25:24.953Z,101688.30
2022-12-03T02:26:28.027Z,101696.11
2022-12-03T02:27:29.930Z,101692.66
2022-12-03T02:28:32.211Z,101693.55
2022-12-03T02:29:35.498Z,101694.58
2022-12-03T02:30:37.693Z,101689.29
2022-12-03T02:31:39.704Z,101700.58
2022-12-03T02:32:42.149Z,101685.92
2022-12-03T02:33:46.229Z,101697.14
2022-12-03T02:34:49.001Z,101693.48
2022-12-03T02:35:51.045Z,101691.89
2022-12-03T02:36:53.194Z,101692.75
2022-12-03T02:38:10.506Z,101700.44
2022-12-03T02:39:12.861Z,101697.91
2022-12-03T02:40:21.468Z,101697.87
2022-12-03T02:41:23.938Z,101701.20
2022-12-03T02:42:26.311Z,101696.95
2022-12-03T02:43:28.731Z,101703.87
2022-12-03T02:44:30.634Z,101709.09
2022-12-03T02:45:45.346Z,101698.01
2022-12-03T02:46:47.671Z,101700.58
2022-12-03T02:47:56.251Z,101704.90
2022-12-03T02:48:59.107Z,101705.70
2022-12-03T02:50:02.081Z,101703.23
2022-12-03T02:51:07.685Z,101705.83
2022-12-03T02:52:10.164Z,101705.80
2022-12-03T02:53:15.789Z,101701.44
2022-12-03T02:54:19.035Z,101703.17
2022-12-03T02:55:22.340Z,101710.95
2022-12-03T02:56:28.187Z,101706.70
2022-12-03T02:57:30.785Z,101704.13
2022-12-03T02:58:33.443Z,101712.82
2022-12-03T02:59:35.408Z,101709.33
2022-12-03T03:00:38.715Z,101708.45
2022-12-03T03:01:41.846Z,101705.89
2022-12-03T03:02:46.118Z,101708.52
2022-12-03T03:03:49.345Z,101711.89
2022-12-03T03:04:52.059Z,101705.83
2022-12-03T03:05:55.635Z,101711.09
2022-12-03T03:06:58.744Z,101715.45
2022-12-03T03:08:01.589Z,101711.09
2022-12-03T03:09:04.537Z,101716.31
2022-12-03T03:10:10.713Z,101711.02
2022-12-03T03:11:12.651Z,101704.97
2022-12-03T03:12:16.470Z,101703.20
2022-12-03T03:13:20.451Z,101712.85
2022-12-03T03:14:22.423Z,101715.25
2022-12-03T03:15:24.914Z,101714.52
2022-12-03T03:16:27.295Z,101711.22
2022-12-03T03:17:29.404Z,101718.08
2022-12-03T03:18:33.760Z,101718.95
2022-12-03T03:19:35.730Z,101719.84
2022-12-03T03:20:38.758Z,101720.70
2022-12-03T03:21:40.630Z,101714.72
2022-12-03T03:22:43.128Z,101723.34
2022-12-03T03:23:45.384Z,101727.59
2022-12-03T03:24:47.438Z,101719.81
2022-12-03T03:25:53.143Z,101730.30
2022-12-03T03:26:55.239Z,101722.47
2022-12-03T03:27:57.228Z,101724.17
2022-12-03T03:28:59.282Z,101725.03
2022-12-03T03:30:01.253Z,101717.31
2022-12-03T03:31:05.882Z,101724.91
2022-12-03T03:32:07.947Z,101718.84
2022-12-03T03:33:12.399Z,101719.77
2022-12-03T03:34:15.397Z,101714.65
2022-12-03T03:35:17.965Z,101714.65
2022-12-03T03:36:20.478Z,101718.28
2022-12-03T03:37:24.410Z,101719.88
2022-12-03T03:38:28.896Z,101722.44
2022-12-03T03:39:31.120Z,101719.88
2022-12-03T03:40:33.655Z,101724.20
2022-12-03T03:41:36.231Z,101721.61
2022-12-03T03:42:38.695Z,101725.03
2022-12-03T03:43:43.347Z,101725.90
2022-12-03T03:44:45.676Z,101713.84
2022-12-03T03:45:48.247Z,101720.81
2022-12-03T03:46:51.866Z,101726.97
2022-12-03T03:47:54.811Z,101726.09
2022-12-03T03:48:56.689Z,101721.73
2022-12-03T03:49:58.771Z,101721.70
2022-12-03T03:51:03.697Z,101731.29
2022-12-03T03:52:06.226Z,101721.86
2022-12-03T03:53:09.196Z,101720.17
2022-12-03T03:54:11.900Z,101718.41
2022-12-03T03:55:14.187Z,101728.66
2022-12-03T03:56:17.478Z,101726.09
2022-12-03T03:57:19.806Z,101737.48
2022-12-03T03:58:21.843Z,101734.84
2022-12-03T03:59:23.823Z,101733.12
2022-12-03T04:00:26.327Z,101733.98
2022-12-03T04:01:29.251Z,101727.00
2022-12-03T04:02:33.420Z,101726.23
2022-12-03T04:03:35.307Z,101735.88
2022-12-03T04:04:37.235Z,101730.59
2022-12-03T04:05:40.909Z,101733.22
2022-12-03T04:06:43.667Z,101726.16
2022-12-03T04:07:48.245Z,101734.84
2022-12-03T04:08:51.878Z,101731.42
2022-12-03T04:09:53.739Z,101735.69
2022-12-03T04:10:56.042Z,101739.95
2022-12-03T04:11:57.900Z,101742.61
2022-12-03T04:13:00.717Z,101747.91
2022-12-03T04:14:02.786Z,101746.17
2022-12-03T04:15:06.159Z,101736.74
2022-12-03T04:16:08.408Z,101735.91
2022-12-03T04:17:10.427Z,101742.73
2022-12-03T04:18:12.292Z,101749.70
2022-12-03T04:19:14.258Z,101748.83
2022-12-03T04:20:16.567Z,101745.40
2022-12-03T04:21:20.887Z,101740.27
2022-12-03T04:22:22.882Z,101747.33
2022-12-03T04:23:30.578Z,101748.06
2022-12-03T04:24:28.539Z,101749.92
2022-12-03T04:25:30.390Z,101746.55
2022-12-03T04:26:33.009Z,101749.02
2022-12-03T04:27:34.875Z,101752.42
2022-12-03T04:28:36.756Z,101755.09
2022-12-03T04:29:38.618Z,101760.28
2022-12-03T04:30:40.615Z,101750.79
2022-12-03T04:31:42.797Z,101752.45
2022-12-03T04:32:44.646Z,101753.26
2022-12-03T04:33:46.714Z,101754.95
2022-12-03T04:34:48.723Z,101751.50
2022-12-03T04:35:52.203Z,101759.28
2022-12-03T04:36:54.560Z,101762.81
2022-12-03T04:37:56.409Z,101759.35
2022-12-03T04:38:58.320Z,101759.35
2022-12-03T04:40:00.176Z,101760.16
2022-12-03T04:41:03.663Z,101763.72
2022-12-03T04:42:05.540Z,101765.51
2022-12-03T04:43:07.376Z,101771.57
2022-12-03T04:44:10.041Z,101768.14
2022-12-03T04:45:11.916Z,101767.27
2022-12-03T04:46:14.013Z,101766.41
2022-12-03T04:47:18.908Z,101772.41
2022-12-03T04:48:21.736Z,101760.28
2022-12-03T04:49:24.839Z,101764.67
2022-12-03T04:50:26.801Z,101763.65
2022-12-03T04:51:28.651Z,101766.38
2022-12-03T04:52:30.548Z,101758.65
2022-12-03T04:53:35.363Z,101767.34
2022-12-03T04:54:37.381Z,101771.61
2022-12-03T04:55:39.807Z,101770.83
2022-12-03T04:56:42.953Z,101765.64
2022-12-03T04:57:44.828Z,101774.36
2022-12-03T04:58:46.783Z,101767.27
2022-12-03T04:59:48.635Z,101772.47
2022-12-03T05:00:50.660Z,101774.42
2022-12-03T05:01:52.784Z,101772.59
2022-12-03T05:02:55.443Z,101775.06
2022-12-03T05:03:57.361Z,101775.93
2022-12-03T05:04:59.420Z,101779.36
2022-12-03T05:06:03.124Z,101781.09
2022-12-03T05:07:05.005Z,101782.92
2022-12-03T05:08:06.915Z,101782.09
2022-12-03T05:09:10.422Z,101782.92
2022-12-03T05:10:12.911Z,101785.59
2022-12-03T05:11:15.624Z,101782.95
2022-12-03T05:12:17.532Z,101785.55
2022-12-03T05:13:19.480Z,101789.05
2022-12-03T05:14:21.347Z,101782.13
2022-12-03T05:15:23.566Z,101794.22
2022-12-03T05:16:25.592Z,101788.16
2022-12-03T05:17:27.658Z,101790.02
2022-12-03T05:18:29.624Z,101795.08
2022-12-03T05:19:31.467Z,101785.59
2022-12-03T05:20:33.489Z,101786.55
2022-12-03T05:21:35.641Z,101794.34
2022-12-03T05:22:37.510Z,101790.91
2022-12-03T05:23:39.384Z,101799.57
2022-12-03T05:24:41.295Z,101802.14
2022-12-03T05:25:43.201Z,101802.02
2022-12-03T05:26:46.077Z,101790.84
2022-12-03T05:27:48.061Z,101797.78
2022-12-03T05:28:50.310Z,101799.51
2022-12-03T05:29:52.472Z,101805.60
2022-12-03T05:30:54.707Z,101799.57
2022-12-03T05:31:56.814Z,101808.20
2022-12-03T05:32:58.880Z,101804.70
2022-12-03T05:34:00.762Z,101808.20
2022-12-03T05:35:03.126Z,101812.44
2022-12-03T05:36:05.923Z,101816.00
2022-12-03T05:37:07.802Z,101816.00
2022-12-03T05:38:09.650Z,101819.46
2022-12-03T05:39:11.538Z,101816.00
2022-12-03T05:40:14.299Z,101812.47
2022-12-03T05:41:16.284Z,101809.03
2022-12-03T05:42:18.161Z,101815.93
2022-12-03T05:43:20.043Z,101813.40
2022-12-03T05:44:22.126Z,101813.43
2022-12-03T05:45:30.431Z,101821.20
2022-12-03T05:46:32.495Z,101818.59
2022-12-03T05:47:35.458Z,101817.73
2022-12-03T05:48:39.261Z,101822.12
2022-12-03T05:49:41.155Z,101814.33
2022-12-03T05:50:45.117Z,101820.33
2022-12-03T05:51:47.038Z,101823.83
2022-12-03T05:52:50.671Z,101827.29
2022-12-03T05:53:52.606Z,101823.76
2022-12-03T05:54:55.003Z,101823.76
2022-12-03T05:55:57.127Z,101819.23
2022-12-03T05:56:59.080Z,101831.45
2022-12-03T05:58:01.652Z,101826.26
2022-12-03T05:59:03.510Z,101821.86
2022-12-03T06:00:09.619Z,101827.92
2022-12-03T06:01:11.539Z,101837.55
2022-12-03T06:02:13.661Z,101831.45
2022-12-03T06:03:16.923Z,101831.52
2022-12-03T06:04:19.031Z,101831.45
2022-12-03T06:05:21.973Z,101839.18
2022-12-03T06:06:23.928Z,101834.05
2022-12-03T06:08:29.407Z,101837.75
2022-12-03T06:09:31.287Z,101839.31
2022-12-03T06:10:33.226Z,101844.45
2022-12-03T06:11:35.067Z,101841.78
2022-12-03T06:12:36.916Z,101840.91
2022-12-03T06:13:39.631Z,101847.05
2022-12-03T06:14:41.503Z,101847.05
2022-12-03T06:15:44.271Z,101840.91
2022-12-03T06:16:47.756Z,101850.41
2022-12-03T06:17:50.344Z,101846.91
2022-12-03T06:18:52.221Z,101853.08
2022-12-03T06:19:54.188Z,101848.77
2022-12-03T06:20:56.167Z,101846.21
2022-12-03T06:22:00.676Z,101845.28
2022-12-03T06:23:02.672Z,101846.08
2022-12-03T06:24:05.611Z,101855.53
2022-12-03T06:25:08.722Z,101855.53
2022-12-03T06:26:13.495Z,101856.47
2022-12-03T06:27:16.010Z,101854.66
2022-12-03T06:28:18.234Z,101854.66
2022-12-03T06:29:20.129Z,101856.40
2022-12-03T06:30:22.110Z,101854.66
2022-12-03T06:31:24.055Z,101855.47
2022-12-03T11:19:16.308Z,101985.42
2022-12-03T11:20:27.905Z,101984.22
2022-12-03T11:21:30.050Z,101979.98
2022-12-03T11:24:02.186Z,101971.72
2022-12-03T11:25:23.049Z,101988.02
2022-12-03T11:26:31.871Z,101983.73
2022-12-03T11:27:33.794Z,101987.16
2022-12-03T11:28:39.760Z,101969.98
2022-12-03T11:29:57.190Z,101983.87
2022-12-03T11:31:06.025Z,101987.33
2022-12-03T11:32:08.002Z,101981.44
2022-12-03T11:33:30.116Z,101981.61
2022-12-03T11:34:35.803Z,101983.21
2022-12-03T11:35:41.471Z,101975.50
2022-12-03T11:37:13.372Z,101980.08
2022-12-03T11:38:40.034Z,101979.17
2022-12-03T11:39:52.415Z,101984.44
2022-12-03T11:41:11.545Z,101987.95
2022-12-03T11:42:23.077Z,101995.03
2022-12-03T11:43:43.679Z,101990.59
2022-12-03T11:44:49.384Z,101988.84
2022-12-03T11:45:51.756Z,101982.76
2022-12-03T11:46:57.389Z,101984.52
2022-12-03T11:48:03.155Z,101982.91
2022-12-03T11:49:33.502Z,101979.33
2022-12-03T11:50:40.315Z,101983.70
2022-12-03T11:51:44.023Z,101983.73
2022-12-03T11:52:50.194Z,101995.16
2022-12-03T11:53:55.553Z,101994.20
2022-12-03T11:55:01.253Z,101994.87
2022-12-03T11:56:06.590Z,101991.48
2022-12-03T11:57:30.692Z,101994.83
2022-12-03T11:58:33.760Z,101998.41
2022-12-03T11:59:35.627Z,101984.52
2022-12-03T12:00:38.573Z,101995.73
2022-12-03T12:01:41.823Z,101998.20
2022-12-03T12:02:43.886Z,101992.11
2022-12-03T12:03:49.360Z,101995.78
2022-12-03T12:04:52.019Z,101986.21
2022-12-03T12:06:08.166Z,101989.80
2022-12-03T12:07:10.077Z,101993.14
2022-12-03T12:08:16.437Z,101998.99
2022-12-03T12:09:51.707Z,101997.30
2022-12-03T12:10:53.942Z,101995.78
2022-12-03T12:11:57.882Z,101999.31
2022-12-03T12:12:59.859Z,101997.62
2022-12-03T12:14:03.931Z,101993.30
2022-12-03T12:15:41.784Z,101995.89
2022-12-03T12:16:53.231Z,101991.72
2022-12-03T12:17:55.201Z,101996.64
2022-12-03T12:18:57.057Z,102001.79
2022-12-03T12:20:25.879Z,102002.70
2022-12-03T12:21:47.222Z,102000.97
2022-12-03T12:22:50.465Z,102009.70
2022-12-03T12:23:52.446Z,102004.27
2022-12-03T12:25:02.648Z,101996.68
2022-12-03T12:26:06.083Z,101996.59
2022-12-03T12:27:20.322Z,102007.97
2022-12-03T12:35:49.500Z,102022.31
2022-12-03T13:05:09.783Z,102053.95
2022-12-03T13:06:15.361Z,102058.27
2022-12-03T13:07:18.214Z,102058.31
2022-12-03T13:08:23.926Z,102059.83
2022-12-03T13:09:26.567Z,102056.50
2022-12-03T13:10:41.118Z,102060.77
2022-12-03T13:11:46.279Z,102066.05
2022-12-03T13:12:48.171Z,102061.83
2022-12-03T13:13:51.133Z,102056.55
2022-12-03T13:14:56.781Z,102061.64
2022-12-03T13:16:07.174Z,102068.65
2022-12-03T13:17:21.417Z,102061.73
2022-12-03T13:18:26.787Z,102066.74
2022-12-03T13:19:31.977Z,102069.42
2022-12-03T13:20:34.021Z,102067.61
2022-12-03T13:21:39.053Z,102071.20
2022-12-03T13:22:44.712Z,102071.20
2022-12-03T13:23:47.852Z,102073.70
2022-12-03T13:24:51.469Z,102071.84
2022-12-03T13:26:12.935Z,102071.97
2022-12-03T13:27:21.115Z,102064.88
2022-12-03T13:28:23.844Z,102074.61
2022-12-03T13:29:27.455Z,102072.80
2022-12-03T13:30:29.577Z,102077.84
2022-12-03T13:31:33.881Z,102081.39
2022-12-03T13:32:37.142Z,102081.20
2022-12-03T13:33:40.039Z,102081.11
2022-12-03T13:34:42.425Z,102084.43
2022-12-03T13:35:44.294Z,102087.07
2022-12-03T13:36:49.475Z,102082.59
2022-12-03T13:37:50.824Z,102092.00
2022-12-03T13:38:52.996Z,102088.61
2022-12-03T13:39:57.015Z,102094.64
2022-12-03T13:41:03.720Z,102096.38
2022-12-03T13:42:09.350Z,102093.79
2022-12-03T13:43:18.616Z,102090.28
2022-12-03T13:44:20.849Z,102093.74
2022-12-03T13:45:35.699Z,102098.88
2022-12-03T13:46:38.589Z,102094.64
2022-12-03T13:47:43.208Z,102097.86
2022-12-03T13:48:45.419Z,102101.22
2022-12-03T13:49:54.077Z,102099.59
2022-12-03T13:50:59.204Z,102101.27
2022-12-03T13:52:01.126Z,102095.08
2022-12-03T13:53:12.420Z,102102.95
2022-12-03T13:54:23.151Z,102102.18
2022-12-03T13:56:38.444Z,102096.38
2022-12-03T13:57:40.332Z,102097.86
2022-12-03T13:58:42.190Z,102096.19
2022-12-03T13:59:44.061Z,102095.38
2022-12-03T14:00:46.325Z,102098.73
2022-12-03T14:01:49.334Z,102096.09
2022-12-03T14:02:51.599Z,102097.05
2022-12-03T14:03:53.703Z,102093.39
2022-12-03T18:22:28.531Z,102248.75
2022-12-03T18:23:32.040Z,102241.48
2022-12-03T18:24:34.532Z,102251.80
2022-12-03T18:25:36.635Z,102235.38
2022-12-03T18:26:38.709Z,102239.69
2022-12-03T18:27:40.593Z,102238.84
2022-12-03T18:28:42.452Z,102241.48
2022-12-03T18:30:53.786Z,102236.61
2022-12-03T18:31:55.709Z,102249.27
2022-12-03T18:32:57.793Z,102243.97
2022-12-03T18:33:59.686Z,102248.34
2022-12-03T18:35:01.630Z,102243.05
2022-12-03T18:36:04.935Z,102247.42
2022-12-03T18:37:10.711Z,102254.34
2022-12-03T18:38:15.380Z,102244.77
2022-12-03T18:40:35.595Z,102248.45
2022-12-03T18:41:38.342Z,102251.47
2022-12-03T18:42:40.317Z,102254.93
2022-12-03T18:43:42.292Z,102259.25
2022-12-03T18:44:49.622Z,102256.66
2022-12-03T18:45:49.821Z,102260.06
2022-12-03T18:46:54.007Z,102253.11
2022-12-03T18:47:55.668Z,102261.73
2022-12-03T18:48:57.681Z,102258.39
2022-12-03T18:49:59.716Z,102258.23
2022-12-03T18:51:01.769Z,102282.47
2022-12-03T18:52:04.125Z,102265.85
2022-12-03T18:53:08.702Z,102272.65
2022-12-03T18:54:12.477Z,102258.61
2022-12-03T18:55:19.179Z,102278.52
2022-12-03T18:56:22.054Z,102270.69
2022-12-03T18:57:23.922Z,102268.05
2022-12-03T18:58:25.801Z,102280.16
2022-12-03T18:59:27.662Z,102279.28
2022-12-03T19:00:31.936Z,102282.75
2022-12-03T19:01:35.753Z,102281.82
2022-12-03T19:03:01.743Z,102289.65
2022-12-03T19:03:41.730Z,102287.00
2022-12-03T19:04:43.795Z,102288.89
2022-12-03T19:05:46.293Z,102278.52
2022-12-03T19:06:48.377Z,102281.11
2022-12-03T19:07:50.371Z,102285.39
2022-12-03T19:08:53.488Z,102285.55
2022-12-03T19:09:55.895Z,102288.09
2022-12-03T19:10:59.765Z,102282.04
2022-12-03T19:12:01.652Z,102293.06
2022-12-03T19:13:03.556Z,102296.39
2022-12-03T19:14:05.814Z,102290.33
2022-12-03T19:15:08.178Z,102282.62
2022-12-03T19:16:10.826Z,102294.78
2022-12-03T19:17:12.916Z,102296.45
2022-12-03T19:18:14.784Z,102294.66
2022-12-03T19:19:16.689Z,102294.66
2022-12-03T19:20:18.957Z,102290.28
2022-12-03T19:21:21.718Z,102296.45
2022-12-03T19:22:23.904Z,102294.61
2022-12-03T19:23:25.812Z,102303.23
2022-12-03T19:24:27.742Z,102300.59
2022-12-03T19:25:29.625Z,102297.09
2022-12-03T19:26:31.692Z,102300.70
2022-12-03T19:27:33.980Z,102299.57
2022-12-03T19:28:36.029Z,102300.48
2022-12-03T19:29:39.247Z,102299.52
2022-12-03T19:30:41.234Z,102308.36
2022-12-03T19:31:43.170Z,102306.75
2022-12-03T19:32:45.283Z,102309.88
2022-12-03T19:33:47.757Z,102305.55
2022-12-03T19:34:50.069Z,102307.27
2022-12-03T19:35:56.253Z,102300.25
2022-12-03T19:38:15.675Z,102308.95
2022-12-03T19:39:18.463Z,102313.71
2022-12-03T19:40:20.530Z,102304.11
2022-12-03T19:41:23.537Z,102316.30
2022-12-03T19:42:25.408Z,102308.19
2022-12-03T19:43:27.685Z,102308.19
2022-12-03T19:44:30.651Z,102317.81
2022-12-03T19:45:35.281Z,102313.37
2022-12-03T19:46:37.444Z,102320.17
2022-12-03T19:47:39.329Z,102323.61
2022-12-03T19:48:41.338Z,102314.99
2022-12-03T19:49:43.205Z,102325.35
2022-12-03T19:51:07.940Z,102325.35
2022-12-03T19:51:57.565Z,102334.09
2022-12-03T19:52:59.529Z,102333.85
2022-12-03T19:54:03.680Z,102328.79
2022-12-03T19:55:06.632Z,102328.91
2022-12-03T19:56:15.282Z,102329.60
2022-12-03T19:57:23.118Z,102326.31
2022-12-03T19:58:22.858Z,102326.08
2022-12-03T19:59:24.778Z,102323.61
2022-12-03T20:00:26.737Z,102327.12
2022-12-03T20:01:32.163Z,102326.26
2022-12-03T20:02:34.362Z,102325.35
2022-12-03T20:03:41.452Z,102322.73
2022-12-03T20:04:43.387Z,102327.92
2022-12-03T20:05:45.266Z,102339.03
2022-12-03T20:06:47.272Z,102337.25
2022-12-03T20:07:49.369Z,102331.09
2022-12-03T20:09:00.675Z,102333.85
2022-12-03T20:10:03.419Z,102338.30
2022-12-03T20:11:23.505Z,102333.04
2022-12-03T20:12:25.963Z,102338.16
2022-12-03T20:13:33.428Z,102339.09
2022-12-03T20:14:32.595Z,102339.97
2022-12-03T20:15:37.560Z,102332.31
2022-12-03T20:16:40.500Z,102345.14
2022-12-03T20:17:42.600Z,102345.88
2022-12-03T20:18:46.666Z,102341.73
2022-12-03T20:19:48.675Z,102337.38
2022-12-03T20:20:50.648Z,102339.03
2022-12-03T20:21:55.270Z,102337.25
2022-12-03T20:22:56.407Z,102342.31
2022-12-03T20:23:58.803Z,102343.05
2022-12-03T20:25:00.650Z,102333.73
2022-12-03T20:26:08.034Z,102334.38
2022-12-03T20:27:10.054Z,102347.38
2022-12-03T20:28:11.920Z,102341.44
2022-12-03T20:29:13.861Z,102345.63
2022-12-03T20:30:16.227Z,102342.05
2022-12-03T20:31:21.852Z,102323.57
2022-12-03T20:32:24.174Z,102339.41
2022-12-03T20:33:26.567Z,102344.67
2022-12-03T20:34:28.489Z,102339.34
2022-12-03T20:35:30.369Z,102339.34
2022-12-03T20:36:33.802Z,102337.75
2022-12-03T20:37:35.698Z,102350.69
2022-12-03T20:38:37.865Z,102353.10
2022-12-03T20:39:39.782Z,102348.91
2022-12-03T20:40:41.775Z,102361.05
2022-12-03T20:41:44.974Z,102357.41
2022-12-03T20:42:47.605Z,102359.03
2022-12-03T20:43:50.286Z,102354.82
2022-12-03T20:44:53.188Z,102355.51
2022-12-03T20:45:59.616Z,102347.86
2022-12-03T20:46:59.953Z,102350.57
2022-12-03T20:48:01.921Z,102352.23
2022-12-03T20:49:04.463Z,102351.56
2022-12-03T20:50:07.691Z,102352.34
2022-12-03T20:51:13.281Z,102347.80
2022-12-03T20:52:15.439Z,102353.85
2022-12-03T20:53:24.944Z,102346.09
2022-12-03T20:54:21.861Z,102348.67
2022-12-03T20:55:23.773Z,102350.57
2022-12-03T20:56:29.006Z,102348.73
2022-12-03T20:57:31.039Z,102350.52
2022-12-03T20:58:34.252Z,102353.05
2022-12-03T20:59:36.175Z,102349.70
2022-12-03T21:00:38.179Z,102358.16
2022-12-03T21:01:40.721Z,102352.23
2022-12-03T21:02:43.962Z,102348.73
2022-12-03T21:03:47.624Z,102355.51
2022-12-03T21:04:50.091Z,102350.33
2022-12-03T21:05:56.607Z,102358.91
2022-12-03T21:06:58.634Z,102353.64
2022-12-03T21:08:00.570Z,102351.27
2022-12-03T21:09:05.521Z,102358.09
2022-12-03T21:10:08.983Z,102345.27
2022-12-03T21:11:13.813Z,102354.70
2022-12-03T21:12:15.728Z,102355.63
2022-12-03T21:13:17.857Z,102355.63
2022-12-03T21:14:19.843Z,102342.32
2022-12-03T21:15:21.708Z,102342.32
2022-12-03T21:16:52.191Z,102346.69
2022-12-03T21:17:31.359Z,102347.50
2022-12-03T21:18:34.397Z,102342.08
2022-12-03T21:19:37.195Z,102349.84
2022-12-03T21:20:47.075Z,102346.56
2022-12-03T21:21:48.990Z,102359.39
2022-12-03T21:22:51.851Z,102360.08
2022-12-03T21:23:54.408Z,102353.97
2022-12-03T21:24:56.378Z,102354.90
2022-12-03T21:26:16.920Z,102352.09
2022-12-03T21:27:21.880Z,102348.61
2022-12-03T21:28:22.670Z,102345.08
2022-12-03T21:29:24.557Z,102356.25
2022-12-03T21:30:26.749Z,102351.97
2022-12-03T21:31:28.863Z,102353.66
2022-12-03T21:32:30.846Z,102356.31
2022-12-03T21:33:32.997Z,102346.08
2022-12-03T21:34:36.527Z,102350.20
2022-12-03T21:35:38.620Z,102349.27
2022-12-03T21:36:41.418Z,102352.59
2022-12-03T21:37:43.296Z,102350.08
2022-12-03T21:38:45.460Z,102354.50
2022-12-03T21:39:47.388Z,102354.63
2022-12-03T21:40:49.823Z,102350.38
2022-12-03T21:42:18.948Z,102353.66
2022-12-03T21:42:55.505Z,102354.44
2022-12-03T21:43:58.140Z,102352.66
2022-12-03T21:45:00.079Z,102358.71
2022-12-03T21:47:18.258Z,102356.44
2022-12-03T21:48:22.254Z,102358.62
2022-12-03T21:49:24.158Z,102366.13
2022-12-03T21:50:26.235Z,102358.23
2022-12-03T21:51:28.128Z,102360.77
2022-12-03T21:52:30.020Z,102362.64
2022-12-03T21:53:33.620Z,102351.29
2022-12-03T21:54:35.529Z,102358.98
2022-12-03T21:55:39.408Z,102353.81
2022-12-03T21:56:41.396Z,102351.22
2022-12-03T21:57:43.250Z,102351.16